Time;durP1;ratioP1;P1;durP2;ratioP2;P2;SDS_P1;SDS_P2;PMS_P1;PMS_P2;Temp;Humidity;BMP_temperature;BMP_pressure;BME280_temperature;BME280_humidity;BME280_pressure;Samples;Min_cycle;Max_cycle;Signal;HPM_P1;HPM_P2
2023/08/30 00:02:12;;;;;;;;;;;;;;;18.08;51.90;100815.00;4833572;29;119590;-75
2023/08/30 00:04:39;;;;;;;;;;;;;;;18.07;51.97;100818.63;4833958;29;118956;-76
2023/08/30 00:07:06;;;;;;;;;;;;;;;18.04;51.87;100813.50;4848309;29;125197;-75
2023/08/30 00:09:33;;;;;;;;;;;;;;;18.02;51.72;100803.88;4832686;29;124964;-76
2023/08/30 00:12:00;;;;;;;;;;;;;;;18.00;51.93;100808.50;4833413;29;120518;-75
2023/08/30 00:14:27;;;;;;;;;;;;;;;17.96;51.92;100810.56;4834246;29;119224;-76
2023/08/30 00:16:54;;;;;;;;;;;;;;;17.94;51.75;100809.81;4832752;29;124234;-76
2023/08/30 00:19:21;;;;;;;;;;;;;;;17.91;51.77;100807.38;4832941;29;123426;-76
2023/08/30 00:21:48;;;;;;;;;;;;;;;17.88;51.80;100797.75;4832457;29;118929;-75
2023/08/30 00:24:14;;;;;;;;;;;;;;;17.86;51.87;100799.69;4831920;29;118625;-75
2023/08/30 00:26:41;;;;;;;;;;;;;;;17.84;51.79;100795.41;4831574;29;123308;-75
2023/08/30 00:29:08;;;;;;;;;;;;;;;17.81;51.76;100790.25;4826556;29;123401;-76
2023/08/30 00:31:35;;;;;;;;;;;;;;;17.78;51.95;100793.16;4814888;29;119753;-76
2023/08/30 00:34:02;;;;;;;;;;;;;;;17.75;51.83;100790.75;4824054;29;118424;-76
2023/08/30 00:36:30;;;;;;;;;;;;;;;17.72;51.96;100778.41;4829066;29;125761;-76
2023/08/30 00:38:57;;;;;;;;;;;;;;;17.69;51.87;100792.06;4821631;29;122895;-75
2023/08/30 00:41:24;;;;;;;;;;;;;;;17.67;51.98;100784.13;4829099;29;120188;-76
2023/08/30 00:43:51;;;;;;;;;;;;;;;17.62;52.05;100786.31;4830469;29;118980;-76
2023/08/30 00:46:18;;;;;;;;;;;;;;;17.59;51.85;100781.16;4838955;29;123469;-75
2023/08/30 00:48:45;;;;;;;;;;;;;;;17.56;51.82;100778.75;4843449;29;123364;-75
2023/08/30 00:51:12;;;;;;;;;;;;;;;17.54;52.00;100783.34;4829132;29;119241;-75
2023/08/30 00:53:39;;;;;;;;;;;;;;;17.51;51.95;100778.22;4822744;29;118335;-76
2023/08/30 00:56:06;;;;;;;;;;;;;;;17.48;52.18;100779.31;4826953;29;124828;-76
2023/08/30 00:58:34;;;;;;;;;;;;;;;17.46;51.88;100780.38;4824976;29;124167;-76
2023/08/30 01:01:01;;;;;;;;;;;;;;;17.44;51.93;100782.31;4831254;29;120480;-75
2023/08/30 01:03:28;;;;;;;;;;;;;;;17.42;51.89;100778.91;4832371;29;118716;-75
2023/08/30 01:05:55;;;;;;;;;;;;;;;17.40;52.07;100780.84;4829707;29;123332;-76
2023/08/30 01:08:22;;;;;;;;;;;;;;;17.38;51.90;100777.44;4833611;29;125600;-76
2023/08/30 01:10:52;;;;;;;;;;;;;;;17.36;52.12;100774.03;4829970;29;119377;-76
2023/08/30 01:13:20;;;;;;;;;;;;;;;17.34;51.93;100775.97;4814667;29;117794;-76
2023/08/30 01:15:47;;;;;;;;;;;;;;;17.31;51.94;100772.56;4841963;29;122410;-76
2023/08/30 01:18:17;;;;;;;;;;;;;;;17.29;52.11;100774.50;4833651;29;124993;-75
2023/08/30 01:20:46;;;;;;;;;;;;;;;17.27;51.97;100765.72;4846913;29;117992;-75
2023/08/30 01:23:31;;;;;;;;;;;;;;;17.25;51.94;100762.31;4831455;29;118561;-76
2023/08/30 01:25:58;;;;;;;;;;;;;;;17.22;51.96;100762.53;4830356;29;125108;-75
2023/08/30 01:28:26;;;;;;;;;;;;;;;17.19;52.16;100762.75;4831650;29;123967;-75
2023/08/30 01:30:54;;;;;;;;;;;;;;;17.17;52.14;100762.00;4831399;29;118607;-76
2023/08/30 01:33:22;;;;;;;;;;;;;;;17.16;51.95;100760.31;4846148;29;118454;-75
2023/08/30 01:35:51;;;;;;;;;;;;;;;17.13;52.06;100764.06;4829042;29;124340;-76
2023/08/30 01:38:18;;;;;;;;;;;;;;;17.10;51.95;100768.78;4813306;29;122882;-75
2023/08/30 01:40:47;;;;;;;;;;;;;;;17.07;52.15;100763.66;4832427;29;120126;-76
2023/08/30 01:43:16;;;;;;;;;;;;;;;17.04;52.21;100763.88;4831941;29;117462;-76
2023/08/30 01:45:43;;;;;;;;;;;;;;;17.02;52.02;100765.81;4831510;29;125195;-75
2023/08/30 01:48:12;;;;;;;;;;;;;;;16.98;52.06;100764.34;4831407;29;121974;-76
2023/08/30 01:50:40;;;;;;;;;;;;;;;16.93;52.07;100762.88;4826673;29;120245;-76
2023/08/30 01:53:10;;;;;;;;;;;;;;;16.90;52.20;100757.72;4831253;29;119655;-75
2023/08/30 01:55:37;;;;;;;;;;;;;;;16.88;52.10;100765.00;4830785;29;127423;-75
2023/08/30 01:58:06;;;;;;;;;;;;;;;16.84;52.02;100755.50;4831165;29;123728;-76
2023/08/30 02:00:35;;;;;;;;;;;;;;;16.82;52.10;100765.47;4830869;29;119165;-75
2023/08/30 02:03:09;;;;;;;;;;;;;;;16.77;52.15;100751.53;4827519;29;118697;-75
2023/08/30 02:05:39;;;;;;;;;;;;;;;16.74;52.22;100767.78;4829760;29;123822;-75
2023/08/30 02:08:12;;;;;;;;;;;;;;;16.71;51.96;100762.69;4833309;29;123884;-76
2023/08/30 02:10:41;;;;;;;;;;;;;;;16.65;52.16;100763.09;4833788;29;118781;-75
2023/08/30 02:13:10;;;;;;;;;;;;;;;16.61;52.30;100761.63;4849238;29;119388;-76
2023/08/30 02:15:38;;;;;;;;;;;;;;;16.57;52.16;100755.63;4834139;29;124250;-75
2023/08/30 02:18:06;;;;;;;;;;;;;;;16.55;52.31;100757.56;4826812;29;123934;-76
2023/08/30 02:20:33;;;;;;;;;;;;;;;16.52;52.32;100758.66;4849742;29;119023;-75
2023/08/30 02:23:00;;;;;;;;;;;;;;;16.50;52.39;100755.22;4833862;29;118669;-76
2023/08/30 02:25:40;;;;;;;;;;;;;;;16.47;52.12;100750.09;4831304;29;124509;-75
2023/08/30 02:28:07;;;;;;;;;;;;;;;16.45;52.09;100756.53;4832739;29;124130;-75
2023/08/30 02:30:34;;;;;;;;;;;;;;;16.42;52.19;100741.53;4817737;29;118256;-76
2023/08/30 02:33:01;;;;;;;;;;;;;;;16.40;52.31;100743.47;4830212;29;119226;-76
2023/08/30 02:35:28;;;;;;;;;;;;;;;16.38;52.40;100744.56;4832745;29;124255;-75
2023/08/30 02:37:55;;;;;;;;;;;;;;;16.37;52.30;100743.72;4832627;29;125412;-75
2023/08/30 02:40:22;;;;;;;;;;;;;;;16.35;52.34;100740.28;4832390;29;120679;-75
2023/08/30 02:42:49;;;;;;;;;;;;;;;16.32;52.47;100735.16;4830746;29;120698;-75
2023/08/30 02:45:16;;;;;;;;;;;;;;;16.31;52.39;100730.75;4826484;29;124402;-75
2023/08/30 02:47:44;;;;;;;;;;;;;;;16.29;52.29;100730.00;4832217;29;123477;-75
2023/08/30 02:50:11;;;;;;;;;;;;;;;16.25;52.43;100728.53;4829523;29;119571;-75
2023/08/30 02:52:38;;;;;;;;;;;;;;;16.24;52.49;100732.19;4831295;29;118169;-75
2023/08/30 02:55:05;;;;;;;;;;;;;;;16.20;52.39;100733.31;4828761;29;124056;-75
2023/08/30 02:57:32;;;;;;;;;;;;;;;16.18;52.32;100727.25;4831863;29;123240;-75
2023/08/30 02:59:59;;;;;;;;;;;;;;;16.15;52.38;100717.63;4831102;29;119166;-75
2023/08/30 03:02:26;;;;;;;;;;;;;;;16.14;52.36;100722.13;4846787;29;118402;-75
2023/08/30 03:04:53;;;;;;;;;;;;;;;16.11;52.49;100719.66;4833861;29;124363;-75
2023/08/30 03:07:21;;;;;;;;;;;;;;;16.10;52.62;100709.94;4848061;29;123042;-75
2023/08/30 03:09:51;;;;;;;;;;;;;;;16.10;52.53;100722.44;4834018;29;119410;-75
2023/08/30 03:12:20;;;;;;;;;;;;;;;16.09;52.58;100718.94;4848721;29;118121;-75
2023/08/30 03:14:47;;;;;;;;;;;;;;;16.08;52.61;100722.53;4843844;29;123646;-75
2023/08/30 03:17:14;;;;;;;;;;;;;;;16.07;52.65;100715.50;4825046;29;127145;-75
2023/08/30 03:19:41;;;;;;;;;;;;;;;16.06;52.67;100719.13;4832964;29;119308;-75
2023/08/30 03:22:08;;;;;;;;;;;;;;;16.05;52.49;100706.75;4832391;29;117977;-75
2023/08/30 03:24:35;;;;;;;;;;;;;;;16.05;52.44;100706.75;4825710;29;124254;-75
2023/08/30 03:27:02;;;;;;;;;;;;;;;16.05;52.69;100705.88;4830383;29;124634;-75
2023/08/30 03:29:29;;;;;;;;;;;;;;;16.05;52.73;100696.06;4832492;29;119545;-75
2023/08/30 03:31:56;;;;;;;;;;;;;;;16.05;52.73;100696.06;4817847;29;120609;-75
2023/08/30 03:34:23;;;;;;;;;;;;;;;16.05;52.64;100685.38;4832801;29;124879;-75
2023/08/30 03:36:54;;;;;;;;;;;;;;;16.06;52.82;100681.72;4832878;29;123276;-76
2023/08/30 03:39:21;;;;;;;;;;;;;;;16.06;52.75;100676.38;4817114;29;119100;-75
2023/08/30 03:41:48;;;;;;;;;;;;;;;16.08;52.63;100677.13;4832986;29;118118;-75
2023/08/30 03:44:15;;;;;;;;;;;;;;;16.10;52.63;100671.69;4832632;29;124171;-76
2023/08/30 03:46:42;;;;;;;;;;;;;;;16.11;52.86;100663.56;4823944;29;124262;-75
2023/08/30 03:49:09;;;;;;;;;;;;;;;16.14;52.91;100658.00;4829171;29;118844;-75
2023/08/30 03:51:36;;;;;;;;;;;;;;;16.15;52.91;100654.34;4834577;29;119260;-75
2023/08/30 03:54:03;;;;;;;;;;;;;;;16.18;52.82;100658.66;4831538;29;124043;-75
2023/08/30 03:56:30;;;;;;;;;;;;;;;16.19;52.69;100655.00;4840254;29;125842;-75
2023/08/30 03:58:57;;;;;;;;;;;;;;;16.21;52.72;100652.22;4816743;29;118501;-75
2023/08/30 04:01:24;;;;;;;;;;;;;;;16.20;52.68;100650.50;4812055;29;118308;-76
2023/08/30 04:03:52;;;;;;;;;;;;;;;16.21;52.76;100646.88;4830956;29;124323;-75
2023/08/30 04:06:19;;;;;;;;;;;;;;;16.21;52.79;100644.19;4824777;29;123377;-75
2023/08/30 04:08:48;;;;;;;;;;;;;;;16.22;52.70;100640.53;4831583;29;119308;-75
2023/08/30 04:11:16;;;;;;;;;;;;;;;16.22;52.81;100638.75;4827795;29;118035;-75
2023/08/30 04:13:45;;;;;;;;;;;;;;;16.23;52.86;100628.91;4830046;29;123672;-75
2023/08/30 04:16:11;;;;;;;;;;;;;;;16.24;52.80;100630.63;4831816;29;124119;-76
2023/08/30 04:18:39;;;;;;;;;;;;;;;16.24;52.90;100622.59;4828608;29;120209;-75
2023/08/30 04:21:08;;;;;;;;;;;;;;;16.23;52.77;100618.22;4827838;29;120327;-75
2023/08/30 04:23:38;;;;;;;;;;;;;;;16.23;52.83;100607.53;4833904;29;123689;-75
2023/08/30 04:26:05;;;;;;;;;;;;;;;16.22;52.81;100600.47;4847843;29;124527;-75
2023/08/30 04:28:32;;;;;;;;;;;;;;;16.22;52.78;100597.78;4831948;29;119477;-74
2023/08/30 04:30:59;;;;;;;;;;;;;;;16.22;52.96;100595.13;4831988;29;119040;-75
2023/08/30 04:33:26;;;;;;;;;;;;;;;16.21;52.67;100604.13;4831410;29;124444;-75
2023/08/30 04:35:53;;;;;;;;;;;;;;;16.20;52.93;100607.75;4832966;29;125028;-75
2023/08/30 04:38:20;;;;;;;;;;;;;;;16.19;52.94;100616.75;4831567;29;118565;-75
2023/08/30 04:40:48;;;;;;;;;;;;;;;16.19;52.91;100616.75;4813089;29;117995;-74
2023/08/30 04:43:15;;;;;;;;;;;;;;;16.19;52.80;100611.41;4814930;29;124426;-75
2023/08/30 04:45:42;;;;;;;;;;;;;;;16.20;52.81;100607.75;4830993;29;124809;-75
2023/08/30 04:48:14;;;;;;;;;;;;;;;16.19;53.01;100606.91;4832126;29;119743;-75
2023/08/30 04:50:42;;;;;;;;;;;;;;;16.20;52.88;100602.41;4831336;29;120096;-75
2023/08/30 04:53:09;;;;;;;;;;;;;;;16.20;52.90;100591.72;4832479;29;124277;-75
2023/08/30 04:55:37;;;;;;;;;;;;;;;16.21;53.01;100596.09;4830927;29;125201;-75
2023/08/30 04:58:04;;;;;;;;;;;;;;;16.23;53.04;100599.50;4832239;29;120561;-75
2023/08/30 05:00:34;;;;;;;;;;;;;;;16.23;53.08;100591.50;4832648;29;119282;-75
2023/08/30 05:03:02;;;;;;;;;;;;;;;16.26;53.13;100591.28;4832551;29;123426;-75
2023/08/30 05:05:30;;;;;;;;;;;;;;;16.27;53.15;100592.97;4832184;29;123437;-75
2023/08/30 05:07:58;;;;;;;;;;;;;;;16.29;53.07;100601.72;4831830;29;118925;-75
2023/08/30 05:10:26;;;;;;;;;;;;;;;16.32;53.14;100601.53;4832310;29;120132;-75
2023/08/30 05:12:53;;;;;;;;;;;;;;;16.33;53.03;100608.56;4831339;29;125455;-75
2023/08/30 05:15:21;;;;;;;;;;;;;;;16.34;53.04;100599.59;4823080;29;124708;-75
2023/08/30 05:17:47;;;;;;;;;;;;;;;16.36;53.20;100603.00;4825949;29;119170;-75
2023/08/30 05:20:14;;;;;;;;;;;;;;;16.39;53.21;100592.09;4831051;29;118970;-75
2023/08/30 05:22:41;;;;;;;;;;;;;;;16.44;53.21;100589.06;4828614;29;123168;-75
2023/08/30 05:25:08;;;;;;;;;;;;;;;16.47;53.22;100589.69;4840417;29;123077;-75
2023/08/30 05:27:36;;;;;;;;;;;;;;;16.49;53.22;100579.72;4827445;29;120271;-75
2023/08/30 05:30:03;;;;;;;;;;;;;;;16.52;53.22;100582.19;4824379;29;117893;-75
2023/08/30 05:32:31;;;;;;;;;;;;;;;16.54;53.26;100569.56;4830846;29;125533;-75
2023/08/30 05:35:17;;;;;;;;;;;;;;;16.58;53.33;100570.19;4843860;29;124106;-75
2023/08/30 05:38:13;;;;;;;;;;;;;;;16.60;53.34;100568.25;4820124;29;120316;-75
2023/08/30 05:40:58;;;;;;;;;;;;;;;16.66;53.39;100561.59;4832527;29;118314;-75
2023/08/30 05:43:25;;;;;;;;;;;;;;;16.70;53.27;100563.06;4835260;29;125371;-75
2023/08/30 05:45:52;;;;;;;;;;;;;;;16.74;53.48;100565.41;4849767;29;123419;-75
2023/08/30 05:48:19;;;;;;;;;;;;;;;16.78;53.41;100563.31;4834264;29;118938;-75
2023/08/30 05:50:46;;;;;;;;;;;;;;;16.82;53.46;100562.19;4834566;29;118590;-75
2023/08/30 05:53:13;;;;;;;;;;;;;;;16.88;53.50;100561.72;4850535;29;124190;-75
2023/08/30 05:55:40;;;;;;;;;;;;;;;16.93;53.53;100561.34;4834994;29;124365;-75
2023/08/30 05:58:07;;;;;;;;;;;;;;;16.99;53.58;100562.69;4817348;29;121393;-75
2023/08/30 06:00:34;;;;;;;;;;;;;;;17.05;53.35;100562.25;4833317;29;118667;-75
2023/08/30 06:03:02;;;;;;;;;;;;;;;17.11;53.46;100559.09;4831369;29;124561;-75
2023/08/30 06:05:29;;;;;;;;;;;;;;;17.17;53.36;100558.59;4834774;29;124961;-75
2023/08/30 06:07:57;;;;;;;;;;;;;;;17.21;53.51;100557.41;4836035;29;119648;-75
2023/08/30 06:10:24;;;;;;;;;;;;;;;17.25;53.43;100553.53;4834308;29;117183;-75
2023/08/30 06:12:50;;;;;;;;;;;;;;;17.32;53.30;100549.38;4827094;29;124297;-75
2023/08/30 06:15:17;;;;;;;;;;;;;;;17.36;53.34;100550.00;4830557;29;123880;-75
2023/08/30 06:17:46;;;;;;;;;;;;;;;17.41;53.33;100544.28;4827916;29;119676;-75
2023/08/30 06:20:13;;;;;;;;;;;;;;;17.45;53.41;100537.72;4830384;29;118849;-75
2023/08/30 06:22:42;;;;;;;;;;;;;;;17.51;53.37;100534.56;4829084;29;123763;-75
2023/08/30 06:25:12;;;;;;;;;;;;;;;17.56;53.55;100535.03;4841526;29;123390;-75
2023/08/30 06:27:41;;;;;;;;;;;;;;;17.60;53.50;100536.50;4830439;29;118675;-75
2023/08/30 06:30:08;;;;;;;;;;;;;;;17.66;53.43;100540.50;4829140;29;119541;-75
2023/08/30 06:32:35;;;;;;;;;;;;;;;17.73;53.45;100530.19;4831138;29;124171;-75
2023/08/30 06:35:02;;;;;;;;;;;;;;;17.78;53.48;100536.00;4831068;29;123369;-75
2023/08/30 06:37:30;;;;;;;;;;;;;;;17.85;53.45;100539.94;4830544;29;120715;-75
2023/08/30 06:39:57;;;;;;;;;;;;;;;17.90;53.66;100540.41;4834622;29;118925;-75
2023/08/30 06:42:25;;;;;;;;;;;;;;;17.95;53.61;100530.19;4832413;29;123204;-75
2023/08/30 06:44:52;;;;;;;;;;;;;;;18.00;53.42;100530.63;4827884;28;123958;-75
2023/08/30 06:47:19;;;;;;;;;;;;;;;18.06;53.56;100523.94;4830473;29;120592;-75
2023/08/30 06:49:45;;;;;;;;;;;;;;;18.11;53.46;100529.78;4834322;29;120720;-75
2023/08/30 06:52:12;;;;;;;;;;;;;;;18.16;53.54;100526.69;4833171;29;124427;-75
2023/08/30 06:54:39;;;;;;;;;;;;;;;18.22;53.45;100527.06;4832829;29;123323;-75
2023/08/30 06:57:06;;;;;;;;;;;;;;;18.28;53.45;100526.53;4832963;29;119389;-75
2023/08/30 06:59:33;;;;;;;;;;;;;;;18.33;53.45;100528.00;4831276;29;118718;-75
2023/08/30 07:02:00;;;;;;;;;;;;;;;18.36;53.42;100525.06;4847623;29;124605;-75
2023/08/30 07:04:28;;;;;;;;;;;;;;;18.41;53.49;100529.06;4832889;29;123252;-75
2023/08/30 07:06:55;;;;;;;;;;;;;;;18.46;53.38;100523.34;4835136;29;121498;-75
2023/08/30 07:09:28;;;;;;;;;;;;;;;18.51;53.49;100525.63;4834428;29;118366;-75
2023/08/30 07:11:55;;;;;;;;;;;;;;;18.54;53.38;100528.06;4826046;28;123693;-75
2023/08/30 07:14:22;;;;;;;;;;;;;;;18.57;53.45;100535.81;4840352;29;122351;-75
2023/08/30 07:16:49;;;;;;;;;;;;;;;18.62;53.43;100544.34;4828508;29;119140;-75
2023/08/30 07:19:16;;;;;;;;;;;;;;;18.65;53.44;100549.47;4834033;29;118524;-75
2023/08/30 07:21:43;;;;;;;;;;;;;;;18.70;53.49;100557.97;4832074;29;123600;-75
2023/08/30 07:24:10;;;;;;;;;;;;;;;18.70;53.31;100566.00;4828556;29;124843;-76
2023/08/30 07:26:37;;;;;;;;;;;;;;;18.69;53.17;100561.63;4842121;29;120475;-75
2023/08/30 07:29:04;;;;;;;;;;;;;;;18.68;53.18;100559.91;4833386;29;118917;-76
2023/08/30 07:31:32;;;;;;;;;;;;;;;18.66;53.30;100551.16;4832159;29;124743;-75
2023/08/30 07:33:59;;;;;;;;;;;;;;;18.63;53.17;100551.44;4833945;29;124075;-76
2023/08/30 07:36:28;;;;;;;;;;;;;;;18.61;53.18;100550.69;4831977;29;120583;-75
2023/08/30 07:39:12;;;;;;;;;;;;;;;18.56;53.27;100524.25;4831710;29;120758;-75
2023/08/30 07:41:39;;;;;;;;;;;;;;;18.53;53.16;100519.13;4832281;29;124860;-75
2023/08/30 07:44:06;;;;;;;;;;;;;;;18.48;53.38;100516.84;4832700;29;124015;-75
2023/08/30 07:46:33;;;;;;;;;;;;;;;18.45;53.38;100510.91;4833125;29;119596;-75
2023/08/30 07:49:00;;;;;;;;;;;;;;;18.42;53.46;100512.00;4829828;29;117044;-75
2023/08/30 07:51:27;;;;;;;;;;;;;;;18.41;53.58;100515.66;4830339;28;124966;-75
2023/08/30 07:53:54;;;;;;;;;;;;;;;18.42;53.35;100506.66;4833811;29;123481;-75
2023/08/30 07:56:21;;;;;;;;;;;;;;;18.41;53.47;100507.63;4833661;29;120113;-75
2023/08/30 07:58:48;;;;;;;;;;;;;;;18.39;53.37;100506.91;4833514;29;118602;-75
2023/08/30 08:01:15;;;;;;;;;;;;;;;18.39;53.54;100506.06;4846510;29;124491;-75
2023/08/30 08:03:42;;;;;;;;;;;;;;;18.38;53.48;100505.19;4827173;29;123487;-75
2023/08/30 08:06:26;;;;;;;;;;;;;;;18.36;53.53;100500.94;4831061;29;119868;-75
2023/08/30 08:08:53;;;;;;;;;;;;;;;18.33;53.44;100499.38;4832586;29;118414;-75
2023/08/30 08:11:20;;;;;;;;;;;;;;;18.32;53.63;100500.34;4823418;29;124188;-76
2023/08/30 08:13:47;;;;;;;;;;;;;;;18.32;53.62;100494.13;4845841;29;122254;-76
2023/08/30 08:16:14;;;;;;;;;;;;;;;18.31;53.77;100492.41;4828173;29;119970;-75
2023/08/30 08:18:41;;;;;;;;;;;;;;;18.31;53.83;100487.94;4822967;29;117685;-76
2023/08/30 08:21:08;;;;;;;;;;;;;;;18.32;53.85;100489.59;4845666;29;124608;-76
2023/08/30 08:23:35;;;;;;;;;;;;;;;18.33;53.73;100480.59;4827842;29;122924;-75
2023/08/30 08:26:02;;;;;;;;;;;;;;;18.34;53.64;100482.28;4822423;29;120649;-76
2023/08/30 08:28:29;;;;;;;;;;;;;;;18.34;53.87;100478.75;4832104;29;119834;-76
2023/08/30 08:30:56;;;;;;;;;;;;;;;18.32;53.95;100484.25;4831649;29;124301;-76
2023/08/30 08:33:24;;;;;;;;;;;;;;;18.33;53.92;100480.59;4828657;29;123910;-76
2023/08/30 08:35:51;;;;;;;;;;;;;;;18.33;53.85;100475.25;4831718;29;120075;-76
2023/08/30 08:38:18;;;;;;;;;;;;;;;18.33;53.98;100480.59;4829930;29;117801;-75
2023/08/30 08:40:44;;;;;;;;;;;;;;;18.33;53.79;100472.56;4833148;29;124076;-77
2023/08/30 08:43:12;;;;;;;;;;;;;;;18.32;53.96;100473.53;4831981;29;123902;-76
2023/08/30 08:45:39;;;;;;;;;;;;;;;18.32;54.04;100478.03;4828284;29;119857;-76
2023/08/30 08:48:07;;;;;;;;;;;;;;;18.32;54.02;100473.53;4828879;29;118229;-76
2023/08/30 08:50:35;;;;;;;;;;;;;;;18.32;54.03;100462.81;4816160;29;123329;-76
2023/08/30 08:53:03;;;;;;;;;;;;;;;18.32;54.06;100462.81;4827063;29;123959;-76
2023/08/30 08:55:31;;;;;;;;;;;;;;;18.32;54.06;100462.81;4831993;29;119769;-76
2023/08/30 08:57:59;;;;;;;;;;;;;;;18.32;54.09;100468.16;4827300;29;118662;-75
2023/08/30 09:00:26;;;;;;;;;;;;;;;18.33;53.88;100464.53;4826970;29;123146;-75
2023/08/30 09:02:54;;;;;;;;;;;;;;;18.31;54.11;100455.75;4828145;29;123545;-76
2023/08/30 09:05:22;;;;;;;;;;;;;;;18.32;54.11;100456.59;4839682;29;119298;-75
2023/08/30 09:07:53;;;;;;;;;;;;;;;18.31;54.11;100455.75;4836637;29;118848;-76
2023/08/30 09:10:21;;;;;;;;;;;;;;;18.31;54.19;100450.38;4843800;29;124484;-76
2023/08/30 09:12:48;;;;;;;;;;;;;;;18.32;54.29;100457.44;4831590;29;124053;-76
2023/08/30 09:15:16;;;;;;;;;;;;;;;18.33;54.24;100459.16;4833010;29;119847;-76
2023/08/30 09:17:46;;;;;;;;;;;;;;;18.34;54.14;100458.16;4834451;29;119513;-76
2023/08/30 09:20:14;;;;;;;;;;;;;;;18.36;54.38;100456.19;4834714;29;123204;-76
2023/08/30 09:22:42;;;;;;;;;;;;;;;18.38;54.21;100456.91;4834016;29;123147;-75
2023/08/30 09:25:10;;;;;;;;;;;;;;;18.42;54.37;100463.75;4836081;29;119408;-76
2023/08/30 09:27:38;;;;;;;;;;;;;;;18.43;54.35;100460.06;4834721;29;117475;-76
2023/08/30 09:30:08;;;;;;;;;;;;;;;18.45;54.38;100457.25;4834320;29;123524;-76
2023/08/30 09:32:38;;;;;;;;;;;;;;;18.46;54.33;100454.47;4835230;29;123264;-76
2023/08/30 09:35:05;;;;;;;;;;;;;;;18.46;54.22;100454.47;4834645;29;119163;-76
2023/08/30 09:37:33;;;;;;;;;;;;;;;18.46;54.43;100459.81;4834437;29;118975;-75
2023/08/30 09:40:00;;;;;;;;;;;;;;;18.47;54.20;100461.50;4818435;29;124119;-75
2023/08/30 09:42:27;;;;;;;;;;;;;;;18.46;54.35;100454.47;4834955;29;124102;-76
2023/08/30 09:44:55;;;;;;;;;;;;;;;18.51;54.41;100445.16;4836328;29;120196;-76
2023/08/30 09:47:26;;;;;;;;;;;;;;;18.57;54.62;100439.28;4835767;29;118648;-76
2023/08/30 09:49:55;;;;;;;;;;;;;;;18.66;54.76;100459.94;4850813;29;123347;-76
2023/08/30 09:52:23;;;;;;;;;;;;;;;18.73;54.61;100455.75;4837231;29;124284;-76
2023/08/30 09:54:51;;;;;;;;;;;;;;;18.81;54.65;100447.94;4837357;29;119714;-75
2023/08/30 09:57:18;;;;;;;;;;;;;;;18.88;54.82;100452.78;4842174;29;117045;-75
2023/08/30 09:59:46;;;;;;;;;;;;;;;18.97;54.61;100441.25;4842258;29;123673;-75
2023/08/30 10:02:13;;;;;;;;;;;;;;;19.08;54.79;100443.84;4842593;29;124702;-76
2023/08/30 10:04:40;;;;;;;;;;;;;;;19.17;54.88;100445.72;4852687;29;119971;-75
2023/08/30 10:07:08;;;;;;;;;;;;;;;19.25;54.78;100445.91;4852711;29;117856;-76
2023/08/30 10:09:37;;;;;;;;;;;;;;;19.32;54.61;100442.66;4855741;29;123851;-75
2023/08/30 10:12:06;;;;;;;;;;;;;;;19.35;54.72;100447.78;4850315;29;124754;-75
2023/08/30 10:14:33;;;;;;;;;;;;;;;19.37;54.45;100437.75;4846219;29;119037;-76
2023/08/30 10:17:03;;;;;;;;;;;;;;;19.38;54.45;100439.44;4864284;28;118484;-75
2023/08/30 10:19:31;;;;;;;;;;;;;;;19.38;54.44;100434.06;4845774;29;125003;-76
2023/08/30 10:22:15;;;;;;;;;;;;;;;19.40;54.44;100432.09;4854677;29;121959;-76
2023/08/30 10:24:46;;;;;;;;;;;;;;;19.41;54.62;100444.53;4835298;29;119904;-76
2023/08/30 10:27:34;;;;;;;;;;;;;;;19.48;54.76;100434.97;4826662;29;119284;-76
2023/08/30 10:30:03;;;;;;;;;;;;;;;19.56;54.70;100427.06;4831319;29;124073;-75
2023/08/30 10:32:31;;;;;;;;;;;;;;;19.67;54.85;100433.31;4834128;29;122105;-75
2023/08/30 10:35:00;;;;;;;;;;;;;;;19.74;54.86;100427.28;4833428;29;119093;-76
2023/08/30 10:37:27;;;;;;;;;;;;;;;19.83;54.85;100422.88;4834137;29;118300;-76
2023/08/30 10:39:59;;;;;;;;;;;;;;;19.96;54.95;100423.47;4834338;29;125238;-75
2023/08/30 10:42:26;;;;;;;;;;;;;;;20.13;55.10;100419.22;4826467;29;122982;-76
2023/08/30 10:45:00;;;;;;;;;;;;;;;20.31;55.05;100418.53;4833520;29;118457;-75
2023/08/30 10:47:35;;;;;;;;;;;;;;;20.50;55.07;100414.97;4836114;29;119327;-76
2023/08/30 10:50:10;;;;;;;;;;;;;;;20.69;55.24;100420.34;4832200;29;124364;-76
2023/08/30 10:52:37;;;;;;;;;;;;;;;20.88;55.14;100415.91;4849165;29;124843;-76
2023/08/30 10:55:06;;;;;;;;;;;;;;;21.04;54.94;100418.84;4820836;29;119520;-76
2023/08/30 10:57:33;;;;;;;;;;;;;;;21.14;55.03;100419.63;4837895;29;119682;-76
2023/08/30 11:00:04;;;;;;;;;;;;;;;21.29;54.92;100414.59;4836007;29;124084;-75
2023/08/30 11:02:35;;;;;;;;;;;;;;;21.46;55.07;100412.16;4829209;29;123646;-76
2023/08/30 11:05:03;;;;;;;;;;;;;;;21.64;55.11;100410.31;4832502;29;119447;-76
2023/08/30 11:07:30;;;;;;;;;;;;;;;21.80;54.90;100412.34;4833381;29;119244;-76
2023/08/30 11:09:57;;;;;;;;;;;;;;;21.93;54.72;100404.72;4833057;29;123738;-76
2023/08/30 11:12:29;;;;;;;;;;;;;;;22.07;54.66;100405.19;4835653;29;124009;-76
2023/08/30 11:14:56;;;;;;;;;;;;;;;22.17;54.70;100400.56;4834397;29;120149;-75
2023/08/30 11:17:23;;;;;;;;;;;;;;;22.29;54.71;100399.34;4834827;29;118067;-76
2023/08/30 11:19:51;;;;;;;;;;;;;;;22.43;54.66;100395.22;4843908;29;124389;-76
2023/08/30 11:22:18;;;;;;;;;;;;;;;22.58;54.72;100392.81;4835029;29;125254;-76
2023/08/30 11:24:47;;;;;;;;;;;;;;;22.70;54.67;100396.94;4832908;29;118533;-76
2023/08/30 11:27:15;;;;;;;;;;;;;;;22.78;54.44;100388.06;4833605;29;118402;-76
2023/08/30 11:29:42;;;;;;;;;;;;;;;22.81;54.32;100386.88;4819159;29;122845;-76
2023/08/30 11:32:09;;;;;;;;;;;;;;;22.81;54.16;100386.88;4835027;29;124260;-76
2023/08/30 11:34:36;;;;;;;;;;;;;;;22.78;53.87;100381.81;4834024;29;119883;-76
2023/08/30 11:37:03;;;;;;;;;;;;;;;22.71;53.92;100387.81;4827551;29;117694;-76
2023/08/30 11:39:31;;;;;;;;;;;;;;;22.65;53.91;100404.66;4831509;29;124349;-76
2023/08/30 11:41:58;;;;;;;;;;;;;;;22.59;53.54;100420.66;4824610;29;124402;-76
2023/08/30 11:44:43;;;;;;;;;;;;;;;22.47;53.73;100420.06;4826156;29;122699;-76
2023/08/30 11:47:10;;;;;;;;;;;;;;;22.40;53.66;100416.31;4830457;29;120262;-76
2023/08/30 11:49:39;;;;;;;;;;;;;;;22.29;53.67;100415.53;4830477;29;124196;-76
2023/08/30 11:52:07;;;;;;;;;;;;;;;22.19;53.69;100414.75;4829261;29;123774;-76
2023/08/30 11:54:34;;;;;;;;;;;;;;;22.11;53.68;100409.28;4833293;29;118990;-76
2023/08/30 11:57:01;;;;;;;;;;;;;;;22.05;53.76;100423.38;4830882;29;118947;-75
2023/08/30 12:00:11;;;;;;;;;;;;;;;22.01;53.96;100430.09;5117638;27;97134;-68
2023/08/30 12:02:40;;;;;;;;;;;;;;;22.03;54.08;100422.69;5081337;27;107056;-68
2023/08/30 12:05:10;;;;;;;;;;;;;;;22.08;54.28;100420.38;5034465;27;123925;-68
2023/08/30 12:07:37;;;;;;;;;;;;;;;22.14;54.27;100403.56;5059229;27;124224;-68
2023/08/30 12:10:08;;;;;;;;;;;;;;;22.19;54.26;100403.97;5053451;27;106656;-68
2023/08/30 12:12:36;;;;;;;;;;;;;;;22.25;54.14;100403.38;5085625;27;107047;-68
2023/08/30 12:15:10;;;;;;;;;;;;;;;22.35;54.17;100408.66;5065618;27;123662;-68
2023/08/30 12:17:37;;;;;;;;;;;;;;;22.46;54.34;100404.88;5060036;27;123561;-68
2023/08/30 12:20:06;;;;;;;;;;;;;;;22.60;54.39;100407.00;5068488;27;107610;-68
2023/08/30 12:22:39;;;;;;;;;;;;;;;22.72;54.49;100408.44;5075734;27;107487;-68
2023/08/30 12:25:15;;;;;;;;;;;;;;;22.83;54.28;100411.84;5078715;27;124432;-68
2023/08/30 12:27:42;;;;;;;;;;;;;;;22.91;54.10;100414.63;5045626;27;124349;-68
2023/08/30 12:30:10;;;;;;;;;;;;;;;22.92;53.83;100419.88;5071515;27;107932;-68
2023/08/30 12:32:36;;;;;;;;;;;;;;;22.92;53.89;100416.31;5046721;27;107186;-68
2023/08/30 12:35:05;;;;;;;;;;;;;;;22.94;53.89;100419.69;5073269;27;125094;-68